Time;durP1;ratioP1;P1;durP2;ratioP2;P2;SDS_P1;SDS_P2;PMS_P1;PMS_P2;Temp;Humidity;BMP_temperature;BMP_pressure;BME280_temperature;BME280_humidity;BME280_pressure;Samples;Min_cycle;Max_cycle;Signal;HPM_P1;HPM_P2
2023/08/18 00:00:25;;;;;;;10.17;6.10;;;;;;;25.63;50.40;100771.58;124874;1102;104124;-84
2023/08/18 00:03:16;;;;;;;10.10;5.77;;;;;;;25.59;50.71;100759.16;124819;1102;102066;-82
2023/08/18 00:05:47;;;;;;;11.70;5.97;;;;;;;25.54;50.67;100764.63;125610;1100;102107;-82
2023/08/18 00:08:19;;;;;;;10.17;6.20;;;;;;;25.50;50.67;100756.67;124829;1102;104182;-82
2023/08/18 00:10:50;;;;;;;10.63;6.23;;;;;;;25.45;50.56;100760.33;124806;1102;101900;-82
2023/08/18 00:13:24;;;;;;;10.10;5.90;;;;;;;25.45;50.83;100754.96;124986;1102;102026;-83
2023/08/18 00:15:56;;;;;;;12.10;5.93;;;;;;;25.43;50.87;100756.81;124877;1102;104370;-83
2023/08/18 00:18:27;;;;;;;13.33;6.20;;;;;;;25.44;51.38;100757.68;124764;1102;102218;-82
2023/08/18 00:20:58;;;;;;;12.80;6.67;;;;;;;25.43;51.37;100756.81;125948;1100;102120;-81
2023/08/18 00:23:30;;;;;;;15.00;6.03;;;;;;;25.42;51.49;100760.40;124768;1102;104201;-82
2023/08/18 00:26:01;;;;;;;11.87;6.50;;;;;;;25.43;51.46;100758.59;124868;1102;101843;-83
2023/08/18 00:28:32;;;;;;;10.37;5.80;;;;;;;25.40;51.50;100756.88;124871;1102;104251;-83
2023/08/18 00:31:04;;;;;;;13.17;5.73;;;;;;;25.37;51.26;100756.94;124891;1102;101802;-82
2023/08/18 00:33:35;;;;;;;8.60;5.50;;;;;;;25.35;51.31;100766.80;124903;1102;102033;-83
2023/08/18 00:36:07;;;;;;;10.60;6.00;;;;;;;25.35;51.53;100764.12;124884;1102;104233;-83
2023/08/18 00:38:38;;;;;;;10.53;5.77;;;;;;;25.38;51.34;100761.38;125554;1102;102246;-83
2023/08/18 00:41:10;;;;;;;12.93;6.20;;;;;;;25.34;51.88;100762.37;124834;1102;104230;-83
2023/08/18 00:43:41;;;;;;;11.07;6.50;;;;;;;25.33;51.75;100763.28;124890;1099;102021;-82
2023/08/18 00:46:12;;;;;;;12.10;6.37;;;;;;;25.32;51.90;100761.50;124850;1099;104184;-82
2023/08/18 00:48:44;;;;;;;9.80;6.13;;;;;;;25.32;52.11;100768.69;124838;1099;104054;-82
2023/08/18 00:51:16;;;;;;;9.87;6.23;;;;;;;25.29;52.28;100767.84;124804;1099;104169;-83
2023/08/18 00:53:49;;;;;;;11.77;6.10;;;;;;;25.24;52.30;100767.03;124784;1102;101871;-81
2023/08/18 00:56:23;;;;;;;17.50;6.90;;;;;;;25.17;52.08;100761.82;124907;1102;101929;-82
2023/08/18 00:58:54;;;;;;;13.93;6.33;;;;;;;25.10;52.13;100759.26;124880;1102;104162;-83
2023/08/18 01:01:26;;;;;;;12.67;6.50;;;;;;;25.05;52.60;100762.94;124790;1100;104102;-82
2023/08/18 01:03:58;;;;;;;11.93;6.17;;;;;;;24.98;52.65;100766.65;124860;1101;102163;-82
2023/08/18 01:06:31;;;;;;;13.00;5.73;;;;;;;24.89;52.64;100762.37;125571;1101;104198;-83
2023/08/18 01:09:03;;;;;;;11.60;6.50;;;;;;;24.85;52.80;100763.33;124826;1101;104179;-82
2023/08/18 01:11:39;;;;;;;11.73;6.50;;;;;;;24.83;52.73;100770.53;124797;1102;104172;-82
2023/08/18 01:14:22;;;;;;;14.50;6.40;;;;;;;24.84;52.91;100778.56;126007;1100;107095;-83
2023/08/18 01:17:02;;;;;;;10.18;5.92;;;;;;;24.84;53.23;100777.65;124877;1102;101885;-83
2023/08/18 01:19:34;;;;;;;10.97;6.60;;;;;;;24.83;53.17;100781.27;124846;1102;104194;-82
2023/08/18 01:22:11;;;;;;;14.60;6.70;;;;;;;24.85;53.27;100768.70;124862;1102;102121;-84
2023/08/18 01:24:43;;;;;;;12.77;6.73;;;;;;;24.82;53.25;100782.17;124879;1102;104189;-83
2023/08/18 01:27:14;;;;;;;12.53;6.80;;;;;;;24.80;53.63;100781.33;124799;1100;104338;-83
2023/08/18 01:29:46;;;;;;;14.23;6.43;;;;;;;24.78;53.30;100770.62;124824;1102;102341;-83
2023/08/18 01:32:19;;;;;;;14.47;6.93;;;;;;;24.80;53.85;100775.95;124901;1102;102029;-82
2023/08/18 01:34:53;;;;;;;14.43;6.50;;;;;;;24.79;53.47;100772.37;124873;1102;102093;-82
2023/08/18 01:37:26;;;;;;;13.63;6.83;;;;;;;24.78;53.57;100772.40;124830;1101;104217;-85
2023/08/18 01:39:58;;;;;;;14.00;6.78;;;;;;;24.76;53.57;100777.80;124862;1101;104082;-83
2023/08/18 01:42:29;;;;;;;13.10;6.13;;;;;;;24.72;53.73;100776.09;124863;1102;104249;-83
2023/08/18 01:45:05;;;;;;;11.57;6.23;;;;;;;24.69;53.92;100782.39;124806;1102;101841;-83
2023/08/18 01:47:36;;;;;;;13.23;6.57;;;;;;;24.66;54.24;100774.41;124848;1101;104300;-83
2023/08/18 01:50:08;;;;;;;9.93;5.80;;;;;;;24.64;54.04;100780.73;124877;1102;104268;-83
2023/08/18 01:52:40;;;;;;;11.60;6.10;;;;;;;24.57;53.89;100778.16;125323;1102;102982;-83
2023/08/18 01:55:12;;;;;;;10.47;5.77;;;;;;;24.56;54.15;100770.11;124857;1102;104169;-84
2023/08/18 01:57:43;;;;;;;13.37;6.20;;;;;;;24.49;54.08;100777.34;124854;1102;104194;-83
2023/08/18 02:00:15;;;;;;;9.03;5.70;;;;;;;24.47;54.28;100779.19;124883;1102;101805;-83
2023/08/18 02:02:46;;;;;;;10.13;5.93;;;;;;;24.50;54.34;100778.26;124849;1101;104291;-83
2023/08/18 02:05:18;;;;;;;10.43;5.67;;;;;;;24.50;54.35;100772.89;124750;1099;102054;-83
2023/08/18 02:07:49;;;;;;;11.67;6.13;;;;;;;24.50;53.87;100772.89;124859;1099;102057;-83
2023/08/18 02:10:21;;;;;;;11.07;5.90;;;;;;;24.47;54.11;100772.95;126076;1098;101842;-83
2023/08/18 02:12:52;;;;;;;13.00;5.87;;;;;;;24.40;54.33;100788.23;124874;1099;103438;-82
2023/08/18 02:15:24;;;;;;;10.63;5.97;;;;;;;24.33;54.25;100774.05;124845;1102;117844;-83
2023/08/18 02:17:55;;;;;;;7.60;5.30;;;;;;;24.28;54.38;100767.89;125567;1101;104165;-83
2023/08/18 02:20:26;;;;;;;9.40;5.60;;;;;;;24.27;54.29;100770.60;124858;1100;101839;-82
2023/08/18 02:22:58;;;;;;;9.73;5.60;;;;;;;24.25;54.47;100778.67;124860;1102;102192;-82
2023/08/18 02:25:30;;;;;;;12.67;6.17;;;;;;;24.20;54.56;100769.83;124841;1099;104233;-83
2023/08/18 02:28:01;;;;;;;7.33;4.87;;;;;;;24.17;54.63;100777.92;124853;1099;102188;-83
2023/08/18 02:30:32;;;;;;;10.73;5.50;;;;;;;24.18;54.38;100779.67;124771;1102;104245;-83
2023/08/18 02:33:04;;;;;;;9.47;5.63;;;;;;;24.18;54.64;100776.98;124859;1102;102083;-82
2023/08/18 02:35:38;;;;;;;10.63;6.00;;;;;;;24.17;54.73;100777.92;124785;1102;101819;-83
2023/08/18 02:38:11;;;;;;;14.17;6.43;;;;;;;24.10;54.72;100776.23;124903;1102;102093;-83
2023/08/18 02:40:44;;;;;;;13.00;6.53;;;;;;;24.04;54.84;100782.56;124938;1102;101932;-83
2023/08/18 02:43:15;;;;;;;12.95;6.37;;;;;;;24.00;54.87;100783.55;124845;1102;101842;-81
2023/08/18 02:45:47;;;;;;;12.77;6.57;;;;;;;23.95;55.23;100780.94;124867;1102;101925;-81
2023/08/18 02:48:19;;;;;;;13.33;5.77;;;;;;;23.95;55.40;100780.02;124863;1102;104268;-82
2023/08/18 02:50:50;;;;;;;14.53;5.87;;;;;;;23.95;55.18;100780.94;124878;1100;101865;-82
2023/08/18 02:53:21;;;;;;;13.07;6.30;;;;;;;23.96;55.21;100785.36;124861;1102;104290;-82
2023/08/18 02:55:54;;;;;;;20.00;6.67;;;;;;;23.94;55.32;100783.63;124884;1101;101863;-81
2023/08/18 02:58:25;;;;;;;15.08;6.80;;;;;;;23.89;55.61;100778.34;124776;1102;101833;-82
2023/08/18 03:00:57;;;;;;;16.90;7.00;;;;;;;23.80;55.55;100776.64;124848;1102;101842;-81
2023/08/18 03:03:28;;;;;;;15.83;7.10;;;;;;;23.71;55.95;100779.45;124844;1102;104185;-81
2023/08/18 03:06:04;;;;;;;11.33;6.30;;;;;;;23.65;56.15;100777.77;125905;1101;102684;-81
2023/08/18 03:08:35;;;;;;;16.10;6.70;;;;;;;23.60;56.35;100779.59;124767;1102;104163;-80
2023/08/18 03:11:08;;;;;;;11.23;6.47;;;;;;;23.58;56.47;100780.55;124833;1102;104169;-82
2023/08/18 03:13:39;;;;;;;15.80;6.47;;;;;;;23.57;56.59;100776.95;125983;1101;101845;-82
2023/08/18 03:16:10;;;;;;;14.20;6.40;;;;;;;23.55;56.51;100786.82;124799;1102;102194;-82
2023/08/18 03:18:41;;;;;;;14.50;7.10;;;;;;;23.51;56.29;100782.39;124872;1102;102447;-82
2023/08/18 03:21:13;;;;;;;13.50;6.23;;;;;;;23.48;56.96;100787.80;124817;1102;104214;-82
2023/08/18 03:23:45;;;;;;;12.47;6.60;;;;;;;23.42;56.62;100786.10;124864;1102;104176;-81
2023/08/18 03:26:16;;;;;;;16.03;7.13;;;;;;;23.36;56.73;100780.83;124834;1102;102054;-82
2023/08/18 03:28:49;;;;;;;12.97;6.50;;;;;;;23.35;57.68;100783.52;124756;1102;101900;-81
2023/08/18 03:31:21;;;;;;;12.80;7.00;;;;;;;23.39;57.01;100790.59;124829;1102;101921;-81
2023/08/18 03:33:52;;;;;;;14.50;7.45;;;;;;;23.43;57.52;100786.98;125435;1102;101938;-81
2023/08/18 03:36:25;;;;;;;16.55;6.75;;;;;;;23.42;57.35;100790.55;124791;1102;104265;-80
2023/08/18 03:38:56;;;;;;;16.00;7.97;;;;;;;23.43;57.00;100789.66;124844;1102;102054;-83
2023/08/18 03:41:37;;;;;;;14.87;7.10;;;;;;;23.39;56.85;100787.91;124920;1102;102585;-84
2023/08/18 03:47:21;;;;;;;13.93;6.80;;;;;;;23.25;57.41;100788.98;126326;1101;107120;-86
2023/08/18 03:49:57;;;;;;;17.57;7.20;;;;;;;23.24;57.41;100789.00;125651;1102;102067;-88
2023/08/18 03:52:28;;;;;;;15.87;7.13;;;;;;;23.26;57.72;100790.73;125518;1102;102198;-83
2023/08/18 03:55:00;;;;;;;14.10;8.03;;;;;;;23.29;57.54;100796.05;125425;1102;104241;-83
2023/08/18 03:57:33;;;;;;;20.93;7.80;;;;;;;23.32;57.92;100793.34;126315;1101;102000;-82
2023/08/18 04:00:10;;;;;;;15.83;8.03;;;;;;;23.36;57.70;100793.30;125124;1102;107470;-83
2023/08/18 04:02:48;;;;;;;13.10;7.73;;;;;;;23.36;58.30;100795.98;125264;1102;104345;-82
2023/08/18 04:05:21;;;;;;;17.57;7.50;;;;;;;23.31;57.61;100804.06;125297;1102;104191;-82
2023/08/18 04:07:53;;;;;;;13.33;7.20;;;;;;;23.25;58.16;100799.70;125400;1101;102071;-83
2023/08/18 04:10:26;;;;;;;17.77;8.30;;;;;;;23.23;58.26;100798.80;125358;1102;118228;-85
2023/08/18 04:12:59;;;;;;;21.63;8.03;;;;;;;23.22;58.50;100807.77;125275;1102;102227;-82
2023/08/18 04:15:31;;;;;;;16.00;8.43;;;;;;;23.20;59.05;100808.67;125372;1102;104252;-82
2023/08/18 04:18:02;;;;;;;14.53;7.50;;;;;;;23.19;59.17;100809.56;125327;1102;101834;-84
2023/08/18 04:20:34;;;;;;;15.70;7.27;;;;;;;23.19;59.38;100804.21;125226;1102;104229;-83
2023/08/18 04:23:14;;;;;;;20.10;7.33;;;;;;;23.21;59.09;100802.42;125265;1102;101944;-85
2023/08/18 04:25:55;;;;;;;16.13;8.10;;;;;;;23.25;59.50;100817.53;125333;1102;104191;-83
2023/08/18 04:28:26;;;;;;;16.17;7.57;;;;;;;23.27;59.28;100813.94;125231;1102;104182;-82
2023/08/18 04:30:59;;;;;;;14.80;7.63;;;;;;;23.30;59.46;100808.55;125274;1102;102059;-83
2023/08/18 04:33:38;;;;;;;16.97;8.20;;;;;;;23.29;59.73;100822.83;125625;1102;102202;-83
2023/08/18 04:36:09;;;;;;;18.30;7.67;;;;;;;23.30;59.64;100813.91;125284;1102;104172;-82
2023/08/18 04:38:43;;;;;;;19.75;8.23;;;;;;;23.30;59.90;100816.58;125242;1102;104207;-83
2023/08/18 04:41:22;;;;;;;16.77;8.47;;;;;;;23.32;60.19;100817.44;125312;1102;102190;-82
2023/08/18 04:43:53;;;;;;;16.83;8.10;;;;;;;23.34;60.41;100820.09;125836;1102;101901;-81
2023/08/18 04:46:29;;;;;;;17.53;7.80;;;;;;;23.37;60.09;100819.19;125442;1102;101737;-83
2023/08/18 04:49:04;;;;;;;18.47;8.07;;;;;;;23.40;60.27;100814.67;125569;1102;101939;-83
2023/08/18 04:51:36;;;;;;;15.83;7.37;;;;;;;23.45;60.42;100825.33;125629;1102;107020;-82
2023/08/18 04:54:09;;;;;;;15.53;7.23;;;;;;;23.47;60.16;100824.41;125725;1102;101815;-83
2023/08/18 04:56:45;;;;;;;16.43;7.90;;;;;;;23.50;60.22;100820.82;125418;1102;104207;-81
2023/08/18 04:59:16;;;;;;;15.83;7.63;;;;;;;23.54;60.56;100825.20;125393;1102;101791;-82
2023/08/18 05:01:51;;;;;;;20.60;7.93;;;;;;;23.66;60.46;100832.22;125250;1102;117876;-81
2023/08/18 05:04:28;;;;;;;15.90;7.70;;;;;;;23.76;60.45;100827.61;125231;1102;104201;-82
2023/08/18 05:07:03;;;;;;;15.43;7.60;;;;;;;23.83;60.42;100831.98;125120;1102;102090;-80
2023/08/18 05:09:37;;;;;;;19.10;7.83;;;;;;;23.94;60.29;100831.88;125176;1102;105454;-83
2023/08/18 05:12:12;;;;;;;13.10;6.93;;;;;;;24.04;60.12;100828.12;125153;1102;102024;-79
2023/08/18 05:14:46;;;;;;;15.47;6.80;;;;;;;24.16;59.84;100827.08;127150;1101;102233;-80
2023/08/18 05:17:18;;;;;;;13.17;6.63;;;;;;;24.24;59.79;100830.52;125897;1101;104196;-81
2023/08/18 05:19:58;;;;;;;16.90;6.37;;;;;;;24.29;59.63;100828.63;125304;1102;104191;-83
2023/08/18 05:22:29;;;;;;;15.03;6.70;;;;;;;24.34;59.28;100825.88;126796;1101;110850;-79
2023/08/18 05:25:01;;;;;;;14.10;6.50;;;;;;;24.39;59.30;100824.91;124922;1102;102047;-81
2023/08/18 05:27:39;;;;;;;12.45;6.33;;;;;;;24.46;59.37;100831.05;126542;1101;102603;-78
2023/08/18 05:30:19;;;;;;;16.50;7.13;;;;;;;24.53;59.55;100826.48;124974;1102;102032;-79
2023/08/18 05:33:01;;;;;;;15.00;6.50;;;;;;;24.60;59.03;100825.48;125237;1102;101836;-81
2023/08/18 05:35:43;;;;;;;10.17;5.40;;;;;;;24.67;58.98;100837.89;125894;1101;102003;-82
2023/08/18 05:38:20;;;;;;;17.90;6.17;;;;;;;24.78;59.05;100826.06;125082;1102;101770;-78
2023/08/18 05:44:24;;;;;;;14.70;5.77;;;;;;;24.88;58.92;100831.23;125189;1105;102832;-81
2023/08/18 05:47:15;;;;;;;;;;;;;;;;;;;;;
2023/08/18 05:50:14;;;;;;;14.87;5.73;;;;;;;25.07;58.67;100822.84;125750;1105;102567;-84
2023/08/18 05:57:37;;;;;;;8.80;5.13;;;;;;;25.24;58.22;100820.73;124926;1112;102726;-80
2023/08/18 06:00:50;;;;;;;10.70;5.40;;;;;;;25.32;57.69;100817.03;125759;1105;104108;-78
2023/08/18 06:03:30;;;;;;;11.43;5.60;;;;;;;25.43;57.35;100821.28;125573;1105;102256;-81
2023/08/18 06:06:12;;;;;;;15.90;5.93;;;;;;;25.53;57.36;100821.95;125726;1102;102226;-79
2023/08/18 06:09:13;;;;;;;14.30;5.50;;;;;;;25.66;57.07;100822.57;126414;1101;101929;-79
2023/08/18 06:11:51;;;;;;;11.40;5.83;;;;;;;25.78;57.13;100816.05;125235;1102;102370;-77
2023/08/18 06:14:57;;;;;;;11.10;5.37;;;;;;;25.87;56.42;100825.70;125665;1102;104249;-80
2023/08/18 06:17:57;;;;;;;10.43;5.30;;;;;;;25.97;56.55;100827.27;126067;1101;101695;-80
2023/08/18 06:20:45;;;;;;;13.70;5.63;;;;;;;26.10;56.26;100825.20;126546;1101;101752;-81
2023/08/18 06:23:29;;;;;;;12.60;5.20;;;;;;;26.21;56.46;100823.16;125643;1101;101853;-76
2023/08/18 06:26:06;;;;;;;13.00;5.60;;;;;;;26.32;55.75;100815.70;125080;1101;104213;-81
2023/08/18 06:29:26;;;;;;;;;;;;;;;;;;;;;
2023/08/18 06:32:09;;;;;;;13.90;5.13;;;;;;;26.61;55.16;100818.58;125279;1105;104243;-79
2023/08/18 06:35:09;;;;;;;11.37;4.87;;;;;;;26.82;54.79;100820.75;125527;1102;102239;-79
2023/08/18 06:38:25;;;;;;;;;;;;;;;;;;;;;
2023/08/18 06:42:00;;;;;;;;;;;;;;;;;;;;;
2023/08/18 06:45:21;;;;;;;12.87;4.97;;;;;;;27.50;53.69;100826.95;126225;1101;101983;-80
2023/08/18 06:48:18;;;;;;;12.37;5.20;;;;;;;27.70;53.42;100823.66;125668;1102;101885;-79
2023/08/18 06:50:53;;;;;;;13.77;5.57;;;;;;;27.82;52.26;100817.02;124615;1102;104254;-77
2023/08/18 06:53:33;;;;;;;12.43;5.73;;;;;;;27.94;52.29;100822.03;124506;1102;104266;-76
2023/08/18 06:56:23;;;;;;;11.53;5.30;;;;;;;28.10;51.75;100821.58;124808;1102;102012;-80
2023/08/18 06:59:51;;;;;;;;;;;;;;;;;;;;;
2023/08/18 07:02:46;;;;;;;13.23;5.00;;;;;;;28.41;51.49;100834.06;125882;1105;101882;-83
2023/08/18 07:05:51;;;;;;;13.63;5.37;;;;;;;28.59;51.10;100836.16;125612;1105;101854;-84
2023/08/18 07:09:10;;;;;;;11.17;4.93;;;;;;;28.76;50.84;100834.70;125581;1105;101816;-84
2023/08/18 07:11:55;;;;;;;10.33;5.37;;;;;;;28.88;50.26;100826.17;125755;1105;104251;-80
2023/08/18 07:15:17;;;;;;;13.50;5.50;;;;;;;28.91;50.17;100828.77;125954;1105;101632;-84
2023/08/18 07:25:11;;;;;;;15.97;5.70;;;;;;;29.13;49.18;100836.11;125694;1105;101826;-88
2023/08/18 07:27:54;;;;;;;9.93;4.80;;;;;;;29.17;49.52;100841.34;125703;1106;102487;-80
2023/08/18 07:31:13;;;;;;;11.60;5.23;;;;;;;29.21;48.72;100828.62;126671;1101;101785;-85
2023/08/18 07:34:07;;;;;;;;;;;;;;;;;;;;;
2023/08/18 07:36:55;;;;;;;15.47;5.33;;;;;;;29.33;48.39;100828.17;126105;1101;101773;-85
2023/08/18 07:39:45;;;;;;;14.33;5.30;;;;;;;29.43;48.23;100815.19;126790;1101;102017;-80
2023/08/18 07:49:55;;;;;;;11.10;4.97;;;;;;;29.70;46.74;100821.37;126540;1101;101541;-83
2023/08/18 07:53:18;;;;;;;9.07;4.80;;;;;;;29.85;46.44;100824.44;126672;1100;101812;-83
2023/08/18 07:56:15;;;;;;;10.83;4.83;;;;;;;29.85;46.23;100825.31;125210;1105;101938;-83
2023/08/18 07:59:17;;;;;;;10.43;4.53;;;;;;;29.82;46.26;100821.85;125464;1105;104180;-79
2023/08/18 08:02:39;;;;;;;;;;;;;;;;;;;;;
2023/08/18 08:09:46;;;;;;;;;;;;;;;;;;;;;
2023/08/18 08:17:05;;;;;;;6.43;4.30;;;;;;;30.55;44.39;100808.98;125409;1105;102242;-83
2023/08/18 08:20:17;;;;;;;9.60;4.70;;;;;;;30.66;44.15;100806.68;125651;1105;102296;-78
2023/08/18 08:23:47;;;;;;;;;;;;;;;;;;;;;
2023/08/18 08:27:05;;;;;;;9.03;4.60;;;;;;;30.60;42.89;100810.52;126615;1101;102067;-80
2023/08/18 08:30:30;;;;;;;9.45;4.25;;;;;;;30.68;43.01;100804.77;125969;1102;102086;-80
2023/08/18 09:23:12;;;;;;;9.53;4.40;;;;;;;31.43;40.09;100783.39;126204;1102;104181;-80
2023/08/18 09:25:56;;;;;;;11.18;5.50;;;;;;;31.59;40.06;100780.89;125776;1104;104189;-78
2023/08/18 09:28:52;;;;;;;11.70;4.70;;;;;;;31.70;40.27;100779.41;124487;1102;102032;-84
2023/08/18 09:31:50;;;;;;;5.67;4.37;;;;;;;31.77;39.74;100777.27;125810;1101;101912;-84
2023/08/18 09:38:21;;;;;;;11.50;4.77;;;;;;;31.70;39.34;100773.11;125684;1102;104556;-81
2023/08/18 09:41:03;;;;;;;7.70;4.47;;;;;;;31.73;39.55;100772.96;125683;1099;101936;-77
2023/08/18 09:43:57;;;;;;;9.77;4.60;;;;;;;31.82;39.16;100779.75;125960;1098;101817;-81
2023/08/18 09:46:42;;;;;;;6.60;4.60;;;;;;;31.75;39.03;100776.47;124512;1099;103013;-78
2023/08/18 09:49:17;;;;;;;12.90;4.90;;;;;;;31.80;39.16;100778.95;124430;1102;104223;-80
2023/08/18 09:51:57;;;;;;;11.03;4.77;;;;;;;31.98;38.90;100771.77;125156;1099;104224;-80
2023/08/18 09:54:32;;;;;;;8.60;4.77;;;;;;;32.14;38.84;100772.77;124582;1102;102012;-82
2023/08/18 09:57:17;;;;;;;5.87;4.40;;;;;;;32.08;38.31;100770.33;125180;1099;101939;-82
2023/08/18 10:00:05;;;;;;;8.57;4.87;;;;;;;32.02;38.51;100776.96;125603;1099;104188;-78
2023/08/18 10:03:00;;;;;;;9.17;4.40;;;;;;;31.95;38.51;100780.05;125133;1099;104060;-80
2023/08/18 10:05:40;;;;;;;9.35;4.45;;;;;;;31.98;38.42;100772.63;125507;1098;101811;-87
2023/08/18 10:08:25;;;;;;;9.43;4.47;;;;;;;32.12;38.56;100766.55;126913;1098;104178;-86
2023/08/18 10:11:25;;;;;;;8.73;4.37;;;;;;;32.39;38.41;100756.10;126196;1099;102109;-88
2023/08/18 10:14:34;;;;;;;8.47;4.50;;;;;;;32.60;37.83;100774.98;124916;1099;111951;-85
2023/08/18 10:17:15;;;;;;;6.43;4.40;;;;;;;32.42;37.56;100772.23;125702;1099;104079;-86
2023/08/18 10:22:57;;;;;;;9.13;4.43;;;;;;;32.31;37.16;100773.77;125432;1102;105627;-84
2023/08/18 10:25:35;;;;;;;7.03;4.20;;;;;;;32.31;37.32;100774.63;126244;1098;101751;-77
2023/08/18 10:28:13;;;;;;;9.27;4.20;;;;;;;32.29;37.27;100778.37;124729;1099;104205;-77
2023/08/18 10:30:57;;;;;;;7.73;4.47;;;;;;;32.38;37.24;100772.47;124565;1099;104431;-79
2023/08/18 10:33:39;;;;;;;6.90;4.07;;;;;;;32.55;36.63;100780.66;124539;1102;101892;-80
2023/08/18 10:36:28;;;;;;;9.27;4.40;;;;;;;32.61;36.45;100772.19;125739;1100;102454;-75
2023/08/18 10:39:36;;;;;;;5.80;4.13;;;;;;;32.56;36.15;100766.09;125626;1099;101820;-78
2023/08/18 10:42:28;;;;;;;11.30;4.17;;;;;;;32.67;36.22;100771.00;126263;1098;102040;-78
2023/08/18 10:45:23;;;;;;;8.93;4.07;;;;;;;32.64;36.31;100770.26;124421;1099;104197;-77
2023/08/18 10:48:05;;;;;;;6.72;4.08;;;;;;;32.64;36.24;100775.69;125201;1099;104189;-78
2023/08/18 10:51:08;;;;;;;8.87;4.20;;;;;;;32.65;35.79;100775.64;124591;1099;104271;-77
2023/08/18 10:54:30;;;;;;;7.90;4.10;;;;;;;32.90;35.75;100763.48;125443;1102;102886;-82
2023/08/18 10:57:14;;;;;;;13.97;4.30;;;;;;;33.08;35.67;100753.43;125149;1102;104809;-77
2023/08/18 11:00:05;;;;;;;6.67;4.20;;;;;;;33.12;35.25;100763.19;125622;1102;104296;-78
2023/08/18 11:06:09;;;;;;;8.50;3.90;;;;;;;32.86;35.11;100754.59;126597;1101;102984;-76
2023/08/18 11:19:58;;;;;;;;;;;;;;;;;;;;;
2023/08/18 11:27:42;;;;;;;;;;;;;;;;;;;;;
2023/08/18 11:30:55;;;;;;;7.63;3.80;;;;;;;32.56;34.81;100757.94;125168;1109;104194;-84
2023/08/18 11:33:52;;;;;;;11.43;3.97;;;;;;;32.42;34.81;100755.94;124906;1109;104236;-79
2023/08/18 11:40:46;;;;;;;9.60;4.07;;;;;;;32.63;34.72;100753.09;125339;1109;104261;-77
2023/08/18 11:47:27;;;;;;;;;;;;;;;;;;;;;
2023/08/18 11:50:13;;;;;;;6.15;3.67;;;;;;;32.51;34.53;100764.59;125813;1104;104201;-79
2023/08/18 11:52:53;;;;;;;7.97;4.03;;;;;;;32.40;34.51;100763.30;124496;1105;102140;-77
2023/08/18 11:59:11;;;;;;;;;;;;;;;;;;;;;
2023/08/18 12:02:42;;;;;;;6.33;3.60;;;;;;;32.59;34.46;100757.78;125703;1102;103194;-78
2023/08/18 12:06:09;;;;;;;6.63;3.80;;;;;;;32.69;34.58;100755.48;125112;1102;101977;-78
2023/08/18 12:08:56;;;;;;;11.20;4.15;;;;;;;32.52;33.70;100752.75;124961;1105;104297;-78
2023/08/18 12:16:05;;;;;;;;;;;;;;;;;;;;;
2023/08/18 12:19:04;;;;;;;6.17;3.50;;;;;;;32.08;33.66;100752.23;125635;1105;117861;-78
2023/08/18 12:22:32;;;;;;;7.50;3.63;;;;;;;32.34;33.48;100750.04;125868;1105;101535;-80
2023/08/18 12:26:16;;;;;;;;;;;;;;;;;;;;;
2023/08/18 12:29:34;;;;;;;6.20;3.37;;;;;;;32.72;33.37;100749.89;124631;1105;102157;-81
2023/08/18 12:32:51;;;;;;;;;;;;;;;;;;;;;
2023/08/18 12:58:52;;;;;;;7.70;3.53;;;;;;;32.49;31.38;100737.52;126107;1103;101704;-85
2023/08/18 13:02:11;;;;;;;6.20;3.20;;;;;;;32.57;31.54;100737.11;126171;1104;102290;-84
2023/08/18 13:05:24;;;;;;;8.03;3.43;;;;;;;32.64;31.25;100729.52;126113;1105;101887;-83
2023/08/18 13:15:41;;;;;;;6.23;3.50;;;;;;;32.60;30.78;100726.09;124383;1110;104212;-78
2023/08/18 13:18:37;;;;;;;5.55;3.20;;;;;;;32.65;30.91;100734.03;124153;1109;102097;-79
2023/08/18 13:21:38;;;;;;;6.50;3.47;;;;;;;32.67;30.58;100732.09;125736;1105;102056;-78
2023/08/18 13:24:44;;;;;;;8.30;3.30;;;;;;;32.72;30.78;100722.72;125152;1102;101968;-79
2023/08/18 13:27:25;;;;;;;5.30;3.03;;;;;;;32.71;30.77;100720.98;125599;1102;102170;-81
2023/08/18 13:34:02;;;;;;;5.93;3.20;;;;;;;32.60;30.82;100735.11;125755;1106;101812;-77
2023/08/18 13:37:30;;;;;;;;;;;;;;;;;;;;;
2023/08/18 13:41:21;;;;;;;5.87;3.20;;;;;;;32.56;30.76;100744.36;125429;1109;118051;-83
2023/08/18 13:44:58;;;;;;;6.80;3.40;;;;;;;32.52;30.78;100733.73;125167;1112;104296;-84
2023/08/18 13:47:55;;;;;;;5.50;3.30;;;;;;;32.53;30.79;100746.38;124942;1109;104230;-82
2023/08/18 13:50:56;;;;;;;7.10;3.30;;;;;;;32.49;30.68;100739.33;125550;1109;104336;-85
2023/08/18 13:53:42;;;;;;;5.77;3.30;;;;;;;32.42;30.64;100741.50;125712;1105;104176;-85
2023/08/18 13:56:32;;;;;;;9.80;3.30;;;;;;;32.40;30.58;100752.44;126204;1105;102203;-82
2023/08/18 13:59:26;;;;;;;6.63;3.00;;;;;;;32.35;30.48;100748.19;125191;1101;102050;-80
2023/08/18 14:02:10;;;;;;;4.30;2.80;;;;;;;32.30;30.36;100751.14;125482;1101;103018;-79
2023/08/18 14:05:13;;;;;;;;;;;;;;;;;;;;;
2023/08/18 14:08:10;;;;;;;7.10;3.20;;;;;;;32.23;29.85;100745.16;126098;1102;101700;-82
2023/08/18 14:10:52;;;;;;;5.13;3.17;;;;;;;32.23;29.50;100747.88;125564;1102;102044;-80
2023/08/18 14:13:42;;;;;;;5.23;3.17;;;;;;;32.18;29.68;100743.62;126447;1101;101785;-82
2023/08/18 14:16:32;;;;;;;4.53;3.07;;;;;;;32.14;29.30;100740.20;126420;1101;101700;-83
2023/08/18 14:19:19;;;;;;;6.83;3.07;;;;;;;32.17;29.21;100744.60;125502;1102;104177;-84
2023/08/18 14:21:58;;;;;;;7.17;3.07;;;;;;;32.17;29.22;100745.47;125461;1102;104291;-81
2023/08/18 14:24:34;;;;;;;5.53;3.40;;;;;;;32.19;29.21;100740.83;125765;1102;104265;-79
2023/08/18 14:27:30;;;;;;;8.50;3.07;;;;;;;32.18;29.16;100738.20;124955;1102;101997;-87
2023/08/18 14:30:11;;;;;;;7.33;3.23;;;;;;;32.18;29.26;100733.67;126136;1102;101696;-83
2023/08/18 14:33:05;;;;;;;10.47;3.13;;;;;;;32.22;29.30;100731.66;126927;1093;108651;31
2023/08/18 14:35:47;;;;;;;4.75;3.00;;;;;;;32.24;29.41;100740.59;126541;1103;104248;-78
2023/08/18 14:39:22;;;;;;;4.43;3.10;;;;;;;32.21;29.49;100730.80;125813;1103;104477;-81
2023/08/18 14:42:00;;;;;;;6.47;3.00;;;;;;;32.21;29.55;100721.75;125522;1105;102042;-79
2023/08/18 14:44:37;;;;;;;4.80;3.00;;;;;;;32.19;29.53;100719.11;125586;1105;101953;-79
2023/08/18 14:47:13;;;;;;;5.90;3.10;;;;;;;32.20;29.67;100707.31;124594;1105;101955;-81
2023/08/18 14:50:04;;;;;;;4.37;2.97;;;;;;;32.21;29.78;100717.22;125455;1105;101793;-80
2023/08/18 14:53:11;;;;;;;;;;;;;;;;;;;;;
2023/08/18 14:56:24;;;;;;;5.97;3.50;;;;;;;32.19;29.45;100710.10;125437;1105;102209;-83
2023/08/18 14:59:29;;;;;;;7.10;3.20;;;;;;;32.15;29.64;100713.92;125468;1105;101824;-85
2023/08/18 15:02:13;;;;;;;4.87;3.17;;;;;;;32.11;29.24;100713.21;125369;1103;104213;-80
2023/08/18 15:04:51;;;;;;;5.43;3.40;;;;;;;32.11;29.46;100696.06;125920;1103;101817;-83
2023/08/18 15:07:23;;;;;;;4.53;3.17;;;;;;;32.11;29.47;100699.64;126121;1105;101970;-86
2023/08/18 15:10:10;;;;;;;7.30;3.10;;;;;;;32.10;29.24;100702.43;126188;1105;104086;-84
2023/08/18 15:12:42;;;;;;;4.67;3.10;;;;;;;32.07;29.49;100695.31;126275;1093;102916;-83
2023/08/18 15:15:14;;;;;;;7.27;3.20;;;;;;;32.07;29.79;100696.19;126862;1102;101656;-82
2023/08/18 15:17:46;;;;;;;4.78;3.20;;;;;;;32.05;29.69;100691.78;126127;1097;102096;-84
2023/08/18 15:20:20;;;;;;;6.33;3.50;;;;;;;32.03;29.93;100693.70;126158;1102;102202;-83
2023/08/18 15:22:52;;;;;;;7.83;3.20;;;;;;;32.03;29.73;100688.27;126398;1093;101552;-84
2023/08/18 15:25:26;;;;;;;6.53;3.40;;;;;;;32.03;29.86;100688.27;125732;1105;102236;-83
2023/08/18 15:27:58;;;;;;;6.87;3.27;;;;;;;32.02;29.99;100686.51;125414;1102;104232;-83
2023/08/18 15:30:37;;;;;;;6.30;3.57;;;;;;;31.97;30.05;100681.31;125419;1102;102032;-83